Time;durP1;ratioP1;P1;durP2;ratioP2;P2;SDS_P1;SDS_P2;PMS_P1;PMS_P2;Temp;Humidity;BMP_temperature;BMP_pressure;BME280_temperature;BME280_humidity;BME280_pressure;Samples;Min_cycle;Max_cycle;Signal;HPM_P1;HPM_P2
2022/01/15 00:00:50;;;;;;;15.63;12.50;;;5.90;56.00;;;;;;5039832;28;20744;-51
2022/01/15 00:03:16;;;;;;;15.43;12.07;;;6.00;55.80;;;;;;5052843;28;20196;-53
2022/01/15 00:05:42;;;;;;;16.07;12.03;;;6.10;55.50;;;;;;5045991;28;20204;-52
2022/01/15 00:08:07;;;;;;;16.70;13.00;;;6.10;55.10;;;;;;5052013;28;20207;-52
2022/01/15 00:10:33;;;;;;;19.90;12.50;;;6.10;55.00;;;;;;5051673;28;20678;-51
2022/01/15 00:13:01;;;;;;;19.77;13.90;;;6.10;55.00;;;;;;5051407;28;20275;-53
2022/01/15 00:15:34;;;;;;;17.90;13.20;;;6.00;55.00;;;;;;5051976;28;20493;-53
2022/01/15 00:20:26;;;;;;;23.23;12.90;;;6.10;55.00;;;;;;5050149;28;20567;-53
2022/01/15 00:22:54;;;;;;;17.20;12.50;;;6.10;54.80;;;;;;5051673;28;20221;-53
2022/01/15 00:25:21;;;;;;;18.10;13.23;;;6.10;54.80;;;;;;5051905;28;20871;-53
2022/01/15 00:27:47;;;;;;;15.00;11.90;;;6.00;54.90;;;;;;5051108;28;20593;-50
2022/01/15 00:30:15;;;;;;;20.77;13.30;;;5.90;55.10;;;;;;5051974;28;20872;-52
2022/01/15 00:32:41;;;;;;;17.03;12.27;;;5.80;55.20;;;;;;5051304;28;20463;-52
2022/01/15 00:35:07;;;;;;;18.77;12.03;;;5.80;55.50;;;;;;5046973;28;20970;-52
2022/01/15 00:37:34;;;;;;;17.27;12.60;;;5.90;55.60;;;;;;5040650;28;20450;-50
2022/01/15 00:40:01;;;;;;;20.53;12.23;;;5.90;55.40;;;;;;5047279;28;20435;-54
2022/01/15 00:42:29;;;;;;;16.87;13.57;;;5.90;55.30;;;;;;5050774;28;20518;-51
2022/01/15 00:44:56;;;;;;;17.50;11.90;;;6.00;55.20;;;;;;5049327;28;20534;-51
2022/01/15 00:47:22;;;;;;;17.40;13.03;;;6.00;55.20;;;;;;5049087;28;20474;-51
2022/01/15 00:49:47;;;;;;;14.17;11.43;;;5.90;55.10;;;;;;5051300;28;20957;-54
2022/01/15 00:52:13;;;;;;;20.30;12.90;;;5.90;55.20;;;;;;5044307;28;20679;-53
2022/01/15 00:54:39;;;;;;;18.43;11.10;;;5.90;55.20;;;;;;5048397;28;20193;-50
2022/01/15 00:57:04;;;;;;;17.90;12.63;;;5.90;55.20;;;;;;5050604;28;20205;-53
2022/01/15 00:59:30;;;;;;;14.20;10.40;;;5.90;55.10;;;;;;5051201;28;20192;-53
2022/01/15 01:01:56;;;;;;;16.83;12.50;;;5.90;54.90;;;;;;5050730;28;20220;-52
2022/01/15 01:04:21;;;;;;;17.10;12.97;;;5.80;54.80;;;;;;5045952;28;20192;-52
2022/01/15 01:06:47;;;;;;;16.53;11.80;;;5.80;54.70;;;;;;5050290;28;20713;-53
2022/01/15 01:09:12;;;;;;;17.30;12.43;;;5.80;54.70;;;;;;5045251;28;20192;-52
2022/01/15 01:11:54;;;;;;;16.80;11.63;;;5.80;54.80;;;;;;5050831;28;20189;-53
2022/01/15 01:20:08;;;;;;;20.87;13.13;;;5.80;54.90;;;;;;5050599;28;20482;-52
2022/01/15 01:24:59;;;;;;;17.60;12.27;;;5.80;54.90;;;;;;5044855;28;20440;-49
2022/01/15 01:27:30;;;;;;;18.60;13.20;;;5.80;54.80;;;;;;5049401;28;20196;-52
2022/01/15 01:30:11;;;;;;;23.17;12.80;;;5.80;54.70;;;;;;5050241;28;20300;-49
2022/01/15 01:35:09;;;;;;;14.23;11.23;;;5.70;54.80;;;;;;5050923;28;20427;-50
2022/01/15 01:37:43;;;;;;;15.30;11.70;;;5.70;54.90;;;;;;5049788;28;20219;-53
2022/01/15 01:42:44;;;;;;;15.67;11.47;;;5.60;55.30;;;;;;5038974;28;20858;-49
2022/01/15 01:45:14;;;;;;;17.73;12.57;;;5.60;55.60;;;;;;5045371;28;20510;-53
2022/01/15 01:47:42;;;;;;;16.43;12.10;;;5.50;55.40;;;;;;5041533;28;21267;-52
2022/01/15 01:50:11;;;;;;;15.03;12.40;;;5.30;55.60;;;;;;5050702;28;20423;-51
2022/01/15 01:52:37;;;;;;;20.40;12.83;;;5.30;56.00;;;;;;5049704;28;21010;-52
2022/01/15 01:55:04;;;;;;;18.60;12.70;;;5.10;56.10;;;;;;5049134;28;20429;-49
2022/01/15 01:57:32;;;;;;;18.03;12.40;;;5.00;56.30;;;;;;5039350;28;20509;-49
2022/01/15 01:59:57;;;;;;;14.67;11.77;;;4.80;56.40;;;;;;5042264;28;20434;-51
2022/01/15 02:02:23;;;;;;;14.73;12.63;;;4.80;56.80;;;;;;5044797;28;20479;-51
2022/01/15 02:04:49;;;;;;;15.70;11.53;;;4.90;56.70;;;;;;5047887;28;20663;-50
2022/01/15 02:07:14;;;;;;;17.33;13.27;;;4.80;56.50;;;;;;5044337;28;20222;-52
2022/01/15 02:09:40;;;;;;;17.77;12.43;;;5.00;56.60;;;;;;5050432;28;20299;-49
2022/01/15 02:12:06;;;;;;;19.30;12.57;;;5.10;56.30;;;;;;5050003;28;20193;-53
2022/01/15 02:14:31;;;;;;;17.83;13.17;;;5.00;56.10;;;;;;5050325;28;20201;-52
2022/01/15 02:16:58;;;;;;;17.40;11.97;;;5.10;56.40;;;;;;5045353;28;20447;-51
2022/01/15 02:19:44;;;;;;;17.27;12.23;;;5.20;56.20;;;;;;5048496;28;20758;-52
2022/01/15 02:24:54;;;;;;;17.57;11.37;;;5.10;56.30;;;;;;5050510;28;20515;-51
2022/01/15 02:27:19;;;;;;;14.43;11.27;;;5.20;56.10;;;;;;5049431;28;20542;-53
2022/01/15 02:29:45;;;;;;;17.23;12.03;;;5.30;55.90;;;;;;5050289;28;20197;-50
2022/01/15 02:32:11;;;;;;;14.13;11.37;;;5.30;55.60;;;;;;5049726;28;20195;-50
2022/01/15 02:34:36;;;;;;;13.37;10.50;;;5.30;55.60;;;;;;5042049;28;20200;-52
2022/01/15 02:37:02;;;;;;;15.57;12.50;;;5.30;55.50;;;;;;5052532;28;20192;-49
2022/01/15 02:39:28;;;;;;;18.53;12.10;;;5.30;55.40;;;;;;5054259;28;20181;-53
2022/01/15 02:41:53;;;;;;;13.80;10.67;;;5.30;55.30;;;;;;5053172;28;20478;-50
2022/01/15 02:44:20;;;;;;;15.83;11.33;;;5.30;55.30;;;;;;5053924;28;20200;-53
2022/01/15 02:49:16;;;;;;;15.77;11.70;;;5.30;55.60;;;;;;5054016;28;20427;-50
2022/01/15 02:51:42;;;;;;;16.33;12.03;;;5.30;55.60;;;;;;5052389;28;20846;-49
2022/01/15 02:54:08;;;;;;;18.90;13.03;;;5.40;55.40;;;;;;5053652;28;20474;-52
2022/01/15 02:56:36;;;;;;;14.50;11.07;;;5.40;55.30;;;;;;5052866;28;20431;-50
2022/01/15 02:59:04;;;;;;;18.03;12.57;;;5.40;55.00;;;;;;5053650;28;21229;-50
2022/01/15 03:01:31;;;;;;;15.47;11.97;;;5.30;54.90;;;;;;5051174;28;20512;-53
2022/01/15 03:03:57;;;;;;;18.67;12.90;;;5.40;54.90;;;;;;5048439;28;20840;-49
2022/01/15 03:06:23;;;;;;;17.47;11.70;;;5.40;54.90;;;;;;5051508;28;20431;-52
2022/01/15 03:08:50;;;;;;;13.93;11.13;;;5.40;54.80;;;;;;5046733;28;20450;-50
2022/01/15 03:11:16;;;;;;;18.13;12.57;;;5.40;55.00;;;;;;5052878;28;20850;-50
2022/01/15 03:13:43;;;;;;;17.03;11.87;;;5.30;55.00;;;;;;5053419;28;20457;-52
2022/01/15 03:16:11;;;;;;;17.53;11.67;;;5.30;55.00;;;;;;5041854;28;20443;-49
2022/01/15 03:18:37;;;;;;;12.30;10.37;;;5.30;54.90;;;;;;5038636;28;20452;-49
2022/01/15 03:21:03;;;;;;;13.57;10.33;;;5.30;54.80;;;;;;5040909;28;20472;-49
2022/01/15 03:23:28;;;;;;;16.27;11.90;;;5.30;54.80;;;;;;5052037;28;20192;-53
2022/01/15 03:25:54;;;;;;;16.70;12.10;;;5.30;54.70;;;;;;5052266;28;20442;-50
2022/01/15 03:28:20;;;;;;;18.17;11.53;;;5.30;54.40;;;;;;5051493;28;20193;-49
2022/01/15 03:30:45;;;;;;;14.00;11.77;;;5.30;54.10;;;;;;5053015;28;20212;-53
2022/01/15 03:33:11;;;;;;;16.57;11.00;;;5.20;53.90;;;;;;5052871;28;20192;-50
2022/01/15 03:35:38;;;;;;;13.83;10.13;;;5.20;53.90;;;;;;5047933;28;20243;-53
2022/01/15 03:38:05;;;;;;;14.00;11.20;;;5.20;53.90;;;;;;5045650;28;20196;-50
2022/01/15 03:40:31;;;;;;;15.10;10.80;;;5.10;53.90;;;;;;5051489;28;20778;-53
2022/01/15 03:42:57;;;;;;;18.10;10.60;;;5.10;54.10;;;;;;5045897;28;20489;-48
2022/01/15 03:45:23;;;;;;;15.30;10.20;;;5.10;54.40;;;;;;5052578;28;20461;-52
2022/01/15 03:47:48;;;;;;;13.80;10.70;;;5.10;54.50;;;;;;5051748;28;20649;-51
2022/01/15 03:50:16;;;;;;;15.23;10.83;;;5.10;54.50;;;;;;5052583;28;20211;-52
2022/01/15 03:52:41;;;;;;;15.73;10.93;;;5.00;54.70;;;;;;5052074;28;20715;-48
2022/01/15 03:55:08;;;;;;;15.57;11.80;;;5.00;55.00;;;;;;5050837;28;20534;-51
2022/01/15 03:57:35;;;;;;;19.93;12.20;;;5.00;55.00;;;;;;5050298;28;20553;-50
2022/01/15 04:00:01;;;;;;;14.17;10.73;;;5.00;54.50;;;;;;5052828;28;20423;-52
2022/01/15 04:02:28;;;;;;;12.70;10.40;;;5.00;54.30;;;;;;5051858;28;20482;-51
2022/01/15 04:04:53;;;;;;;13.27;10.57;;;5.00;54.30;;;;;;5046098;28;21090;-50
2022/01/15 04:07:19;;;;;;;14.10;10.67;;;5.00;54.30;;;;;;5051280;28;20431;-52
2022/01/15 04:09:45;;;;;;;14.97;11.17;;;4.90;54.30;;;;;;5052576;28;20199;-53
2022/01/15 04:12:10;;;;;;;18.60;11.30;;;5.00;54.30;;;;;;5051650;28;20196;-53
2022/01/15 04:14:36;;;;;;;15.80;10.67;;;5.00;54.50;;;;;;5036528;28;20193;-49
2022/01/15 04:17:02;;;;;;;14.70;11.43;;;5.00;54.70;;;;;;5044394;28;20263;-50
2022/01/15 04:19:29;;;;;;;15.47;10.83;;;5.00;54.60;;;;;;5052918;28;20299;-52
2022/01/15 04:21:55;;;;;;;16.07;11.50;;;5.00;54.50;;;;;;5043340;28;21007;-49
2022/01/15 04:24:20;;;;;;;15.50;10.97;;;4.90;54.00;;;;;;5051109;28;20415;-53
2022/01/15 04:26:48;;;;;;;17.17;12.27;;;4.90;54.10;;;;;;5044618;28;20450;-52
2022/01/15 04:29:15;;;;;;;15.57;11.57;;;4.90;54.10;;;;;;5052081;28;20193;-48
2022/01/15 04:31:48;;;;;;;15.83;12.17;;;4.90;54.10;;;;;;5050123;28;20428;-50
2022/01/15 04:34:19;;;;;;;15.23;11.43;;;4.90;54.20;;;;;;5052181;28;20934;-52
2022/01/15 04:36:45;;;;;;;17.13;11.50;;;4.90;54.30;;;;;;5050407;28;20440;-50
2022/01/15 04:39:12;;;;;;;19.87;12.37;;;4.90;54.20;;;;;;5051896;28;20482;-53
2022/01/15 04:41:38;;;;;;;13.63;10.30;;;4.90;54.10;;;;;;5051068;28;20486;-49
2022/01/15 04:44:05;;;;;;;21.47;13.63;;;4.80;53.90;;;;;;5051640;28;20526;-50
2022/01/15 04:46:31;;;;;;;15.13;11.93;;;4.80;53.70;;;;;;5050589;28;20641;-52
2022/01/15 04:48:57;;;;;;;25.60;15.13;;;4.80;53.70;;;;;;5049467;28;20473;-53
2022/01/15 04:51:22;;;;;;;25.90;13.47;;;4.80;53.80;;;;;;5050953;28;20934;-51
2022/01/15 04:53:48;;;;;;;23.70;14.70;;;4.80;54.00;;;;;;5051795;28;20199;-49
2022/01/15 04:56:14;;;;;;;19.63;13.13;;;4.70;54.00;;;;;;5050972;28;20196;-49
2022/01/15 04:58:39;;;;;;;19.03;12.57;;;4.70;54.10;;;;;;5050424;28;20238;-49
2022/01/15 05:01:05;;;;;;;18.80;12.13;;;4.70;54.10;;;;;;5050540;28;20959;-50
2022/01/15 05:03:32;;;;;;;14.90;10.30;;;4.80;54.20;;;;;;5050063;28;20200;-52
2022/01/15 05:05:57;;;;;;;19.60;11.20;;;4.70;54.20;;;;;;5043945;28;20296;-49
2022/01/15 05:08:23;;;;;;;15.47;11.27;;;4.70;54.30;;;;;;5051289;28;20541;-50
2022/01/15 05:10:48;;;;;;;15.97;9.90;;;4.70;54.60;;;;;;5050966;28;20192;-50
2022/01/15 05:13:15;;;;;;;16.10;11.10;;;4.70;54.70;;;;;;5050869;28;20272;-49
2022/01/15 05:15:43;;;;;;;19.73;11.90;;;4.60;54.70;;;;;;5049265;28;20224;-50
2022/01/15 05:18:09;;;;;;;19.93;13.63;;;4.70;54.50;;;;;;5050479;28;20435;-50
2022/01/15 05:20:36;;;;;;;17.27;12.47;;;4.60;54.30;;;;;;5049878;28;20847;-51
2022/01/15 05:23:01;;;;;;;18.03;12.50;;;4.70;54.30;;;;;;5045054;28;20502;-52
2022/01/15 05:25:27;;;;;;;16.53;12.10;;;4.60;54.10;;;;;;5039687;28;20910;-49
2022/01/15 05:27:53;;;;;;;15.67;10.70;;;4.60;54.00;;;;;;5050443;28;20212;-50
2022/01/15 05:30:19;;;;;;;18.07;10.53;;;4.60;54.00;;;;;;5050928;28;20189;-50
2022/01/15 05:32:44;;;;;;;14.13;11.60;;;4.60;54.10;;;;;;5050465;28;20673;-51
2022/01/15 05:35:10;;;;;;;9.97;8.97;;;4.60;54.40;;;;;;5050442;28;20431;-50
2022/01/15 05:37:36;;;;;;;14.80;10.93;;;4.60;54.40;;;;;;5049874;28;20287;-53
2022/01/15 05:40:04;;;;;;;11.30;9.43;;;4.60;54.20;;;;;;5047457;28;20961;-50
2022/01/15 05:42:29;;;;;;;14.67;11.13;;;4.60;54.00;;;;;;5038653;28;20514;-49
2022/01/15 05:44:55;;;;;;;15.10;11.10;;;4.60;54.00;;;;;;5050627;28;20471;-51
2022/01/15 05:47:21;;;;;;;14.47;11.50;;;4.60;54.10;;;;;;5050187;28;20279;-49
2022/01/15 05:49:46;;;;;;;14.83;10.80;;;4.60;54.20;;;;;;5051056;28;20196;-50
2022/01/15 05:52:12;;;;;;;15.70;10.63;;;4.60;54.20;;;;;;5050213;28;20624;-50
2022/01/15 05:54:37;;;;;;;17.70;11.60;;;4.60;54.10;;;;;;5050717;28;20195;-49
2022/01/15 05:57:03;;;;;;;19.03;11.50;;;4.60;53.90;;;;;;5043867;28;20254;-49
2022/01/15 05:59:29;;;;;;;16.43;11.77;;;4.60;53.80;;;;;;5046350;28;20193;-53
2022/01/15 06:01:54;;;;;;;15.90;11.43;;;4.50;53.90;;;;;;5050188;28;20227;-53
2022/01/15 06:04:20;;;;;;;15.70;11.63;;;4.50;54.10;;;;;;5044321;28;20272;-53
2022/01/15 06:06:45;;;;;;;14.77;10.87;;;4.50;54.10;;;;;;5049941;28;20228;-54
2022/01/15 06:09:11;;;;;;;15.53;11.20;;;4.50;54.40;;;;;;5049143;28;20234;-53
2022/01/15 06:11:39;;;;;;;18.27;11.90;;;4.50;54.50;;;;;;5053103;28;20196;-52
2022/01/15 06:14:04;;;;;;;14.93;11.40;;;4.50;54.90;;;;;;5050170;28;20193;-52
2022/01/15 06:16:30;;;;;;;14.93;10.80;;;4.50;54.20;;;;;;5053402;28;20564;-53
2022/01/15 06:18:56;;;;;;;17.40;12.63;;;4.40;54.00;;;;;;5049704;28;20268;-51
2022/01/15 06:21:21;;;;;;;16.37;12.23;;;4.40;54.00;;;;;;5053946;28;20219;-52
2022/01/15 06:23:47;;;;;;;14.17;11.37;;;4.40;54.10;;;;;;5053429;28;20219;-52
2022/01/15 06:26:13;;;;;;;14.73;10.90;;;4.40;54.10;;;;;;5053970;28;20330;-53
2022/01/15 06:28:39;;;;;;;16.03;11.00;;;4.40;54.10;;;;;;5052904;28;20648;-53
2022/01/15 06:31:04;;;;;;;14.77;10.80;;;4.40;54.20;;;;;;5060105;28;20447;-52
2022/01/15 06:33:30;;;;;;;18.23;11.93;;;4.40;54.70;;;;;;5051607;28;20774;-52
2022/01/15 06:35:56;;;;;;;15.27;11.00;;;4.40;54.10;;;;;;5050760;28;20322;-53
2022/01/15 06:38:21;;;;;;;16.17;11.00;;;4.50;54.20;;;;;;5063290;28;20195;-53
2022/01/15 06:40:47;;;;;;;14.13;10.00;;;4.50;54.10;;;;;;5044289;28;20668;-52
2022/01/15 06:43:12;;;;;;;15.80;10.47;;;4.40;53.90;;;;;;5049098;28;20231;-52
2022/01/15 06:45:38;;;;;;;14.10;11.93;;;4.40;54.00;;;;;;5049658;28;20216;-54
2022/01/15 06:48:04;;;;;;;15.33;11.53;;;4.40;53.90;;;;;;5045362;28;20197;-54
2022/01/15 06:50:30;;;;;;;20.53;11.80;;;4.30;54.00;;;;;;5054249;28;20431;-49
2022/01/15 06:52:57;;;;;;;14.63;10.70;;;4.30;54.10;;;;;;5053037;28;20517;-49
2022/01/15 06:55:22;;;;;;;15.03;11.80;;;4.40;54.30;;;;;;5053518;28;20466;-50
2022/01/15 06:57:48;;;;;;;15.73;11.20;;;4.30;54.10;;;;;;5051396;28;20459;-49
2022/01/15 07:00:15;;;;;;;21.07;11.60;;;4.30;54.00;;;;;;5053805;28;20204;-50
2022/01/15 07:02:41;;;;;;;13.27;11.07;;;4.30;54.00;;;;;;5051462;28;20224;-53
2022/01/15 07:05:07;;;;;;;17.17;11.43;;;4.40;53.90;;;;;;5041072;28;20428;-51
2022/01/15 07:07:34;;;;;;;15.43;12.30;;;4.40;53.80;;;;;;5049071;28;20911;-50
2022/01/15 07:10:00;;;;;;;14.67;12.43;;;4.30;53.70;;;;;;5053362;28;20938;-52
2022/01/15 07:12:25;;;;;;;18.70;14.30;;;4.30;53.70;;;;;;5052777;28;20612;-51
2022/01/15 07:14:51;;;;;;;17.20;12.60;;;4.30;53.70;;;;;;5052840;28;20193;-50
2022/01/15 07:17:19;;;;;;;15.90;12.80;;;4.20;53.70;;;;;;5052804;28;20632;-51
2022/01/15 07:19:45;;;;;;;16.53;11.93;;;4.20;53.90;;;;;;5053401;28;20240;-52
2022/01/15 07:22:10;;;;;;;14.93;12.43;;;4.20;54.00;;;;;;5046599;28;20479;-53
2022/01/15 07:24:36;;;;;;;16.27;12.50;;;4.20;54.20;;;;;;5052865;28;20226;-49
2022/01/15 07:27:02;;;;;;;16.70;11.17;;;4.20;54.60;;;;;;5052320;28;20203;-51
2022/01/15 07:29:30;;;;;;;24.53;13.00;;;4.20;54.00;;;;;;5051432;28;20193;-50
2022/01/15 07:31:56;;;;;;;21.27;13.90;;;4.20;54.10;;;;;;5052421;28;20497;-50
2022/01/15 07:34:22;;;;;;;24.17;14.03;;;4.40;54.40;;;;;;5052873;28;20476;-52
2022/01/15 07:36:53;;;;;;;29.20;18.83;;;4.80;54.20;;;;;;5051589;28;20926;-49
2022/01/15 07:39:20;;;;;;;26.40;16.97;;;5.40;53.20;;;;;;5042883;28;20541;-51
2022/01/15 07:41:46;;;;;;;23.80;15.43;;;6.10;51.70;;;;;;5049550;28;20521;-50
2022/01/15 07:44:12;;;;;;;22.70;15.87;;;6.70;50.10;;;;;;5046150;28;20451;-49
2022/01/15 07:46:37;;;;;;;19.47;13.70;;;7.30;48.50;;;;;;5038510;28;20449;-52
2022/01/15 07:49:03;;;;;;;17.77;11.93;;;8.00;47.20;;;;;;5052677;28;20250;-50
2022/01/15 07:51:29;;;;;;;16.13;11.17;;;8.60;46.00;;;;;;5051910;28;20197;-50
2022/01/15 07:53:55;;;;;;;20.00;14.60;;;9.10;44.70;;;;;;5053011;28;20197;-49
2022/01/15 07:56:21;;;;;;;22.90;16.20;;;9.50;43.50;;;;;;5044926;28;20902;-52
2022/01/15 07:58:47;;;;;;;18.10;14.40;;;9.90;42.10;;;;;;5052480;28;20203;-49
2022/01/15 08:01:13;;;;;;;17.23;13.93;;;10.20;40.50;;;;;;5050867;28;20426;-50
2022/01/15 08:03:39;;;;;;;18.73;14.53;;;10.40;40.40;;;;;;5040227;28;20449;-51
2022/01/15 08:06:06;;;;;;;24.17;13.50;;;10.60;39.90;;;;;;5048994;28;20434;-49
2022/01/15 08:08:33;;;;;;;19.83;16.20;;;10.70;39.80;;;;;;5052228;28;20521;-50
2022/01/15 08:10:59;;;;;;;18.30;14.67;;;10.80;39.80;;;;;;5051940;28;20450;-49
2022/01/15 08:13:25;;;;;;;21.10;14.23;;;10.70;39.60;;;;;;5043335;28;20424;-50
2022/01/15 08:15:52;;;;;;;17.23;13.27;;;10.60;39.50;;;;;;5048956;28;20204;-50
2022/01/15 08:18:19;;;;;;;19.13;15.37;;;10.20;40.10;;;;;;5052059;28;20446;-49
2022/01/15 08:20:45;;;;;;;24.87;16.03;;;9.80;41.80;;;;;;5052056;28;21028;-53
2022/01/15 08:23:10;;;;;;;22.47;13.83;;;9.40;42.30;;;;;;5049989;28;20486;-52
2022/01/15 08:25:36;;;;;;;35.67;16.03;;;9.00;43.20;;;;;;5051669;28;20869;-50
2022/01/15 08:28:01;;;;;;;27.50;14.90;;;8.50;44.50;;;;;;5051603;28;20199;-51
2022/01/15 08:30:27;;;;;;;21.13;15.30;;;8.10;45.20;;;;;;5046491;28;20192;-50
2022/01/15 08:32:53;;;;;;;24.30;14.10;;;7.70;46.30;;;;;;5051114;28;20644;-50
2022/01/15 08:35:18;;;;;;;21.90;16.10;;;7.40;47.30;;;;;;5051471;28;20819;-51
2022/01/15 08:37:44;;;;;;;28.43;17.50;;;7.20;48.10;;;;;;5049973;28;20671;-51
2022/01/15 08:40:13;;;;;;;36.20;16.37;;;7.10;48.50;;;;;;5048819;28;20722;-52
2022/01/15 08:42:39;;;;;;;26.93;15.40;;;6.90;48.70;;;;;;5050000;28;20224;-52
2022/01/15 08:45:07;;;;;;;19.73;14.87;;;6.80;49.10;;;;;;5052627;28;20538;-50
2022/01/15 08:47:33;;;;;;;19.67;13.90;;;6.60;49.40;;;;;;5048304;28;20447;-53
2022/01/15 08:50:00;;;;;;;18.70;13.87;;;6.60;50.00;;;;;;5036886;28;20423;-52
2022/01/15 08:52:25;;;;;;;15.90;13.30;;;6.50;50.40;;;;;;5051024;28;20431;-53
2022/01/15 08:54:51;;;;;;;23.20;13.83;;;6.50;50.50;;;;;;5050868;28;20431;-53
2022/01/15 08:57:17;;;;;;;17.23;12.63;;;6.50;51.10;;;;;;5050973;28;20188;-52
2022/01/15 08:59:43;;;;;;;19.40;13.50;;;6.40;51.50;;;;;;5050876;28;20196;-52
2022/01/15 09:02:10;;;;;;;23.37;15.53;;;6.40;51.30;;;;;;5046250;28;20582;-52
2022/01/15 09:04:36;;;;;;;19.27;13.27;;;6.40;51.60;;;;;;5048392;28;20435;-52
2022/01/15 09:07:02;;;;;;;18.80;13.50;;;6.40;52.00;;;;;;5042926;28;20562;-52
2022/01/15 09:09:27;;;;;;;19.87;13.67;;;6.40;52.00;;;;;;5049016;28;20438;-51
2022/01/15 09:11:53;;;;;;;19.17;13.77;;;6.50;52.00;;;;;;5050440;28;20579;-50
2022/01/15 09:14:19;;;;;;;19.50;12.93;;;6.50;52.20;;;;;;5051018;28;20260;-53
2022/01/15 09:16:44;;;;;;;20.30;13.67;;;6.50;52.00;;;;;;5049591;28;20203;-54
2022/01/15 09:19:10;;;;;;;18.57;14.23;;;6.60;52.00;;;;;;5047218;28;20195;-50
2022/01/15 09:21:36;;;;;;;24.83;14.70;;;6.70;52.10;;;;;;5039646;28;20721;-52
2022/01/15 09:24:01;;;;;;;21.13;13.53;;;6.70;52.10;;;;;;5048745;28;20307;-52
2022/01/15 09:31:57;;;;;;;24.40;15.40;;;6.70;52.50;;;;;;5050170;28;20476;-50
2022/01/15 09:34:23;;;;;;;17.67;14.10;;;6.90;52.50;;;;;;5050953;28;20918;-52
2022/01/15 09:36:48;;;;;;;17.33;12.90;;;7.00;52.80;;;;;;5049578;28;20438;-52
2022/01/15 09:39:14;;;;;;;18.53;13.43;;;7.10;52.60;;;;;;5044580;28;20671;-51
2022/01/15 09:41:46;;;;;;;18.50;15.73;;;7.30;52.80;;;;;;5050118;28;20350;-51
2022/01/15 09:44:13;;;;;;;18.63;14.50;;;7.50;53.00;;;;;;5048999;28;20718;-50
2022/01/15 09:46:39;;;;;;;18.30;12.80;;;7.70;53.30;;;;;;5049626;28;20767;-52
2022/01/15 09:49:07;;;;;;;16.33;14.03;;;7.90;52.70;;;;;;5050722;28;20574;-49
2022/01/15 09:51:33;;;;;;;16.87;14.17;;;8.10;52.40;;;;;;5082265;28;20791;-50
2022/01/15 09:53:59;;;;;;;19.33;14.70;;;8.20;51.80;;;;;;5050809;28;20513;-49
2022/01/15 09:56:25;;;;;;;27.57;15.10;;;8.60;51.40;;;;;;5048903;28;20207;-51
2022/01/15 09:58:52;;;;;;;19.97;15.80;;;8.80;50.70;;;;;;5050866;28;20914;-49
2022/01/15 10:01:18;;;;;;;18.23;15.37;;;9.00;50.20;;;;;;5049734;28;20196;-53
2022/01/15 10:03:44;;;;;;;22.87;16.43;;;9.20;49.80;;;;;;5047322;28;21907;-50
2022/01/15 10:06:09;;;;;;;16.63;14.70;;;9.50;49.00;;;;;;5047520;28;20189;-51
2022/01/15 10:08:35;;;;;;;19.20;16.20;;;9.70;48.50;;;;;;5050334;28;20201;-49
2022/01/15 10:11:07;;;;;;;18.63;16.20;;;9.90;48.20;;;;;;5048049;28;20192;-50
2022/01/15 10:13:43;;;;;;;22.83;17.23;;;10.10;47.30;;;;;;5044137;28;20768;-50
2022/01/15 10:16:08;;;;;;;21.90;16.43;;;10.20;47.10;;;;;;5049395;28;20430;-53
2022/01/15 10:18:43;;;;;;;17.03;15.20;;;10.30;47.70;;;;;;5050466;28;20469;-49
2022/01/15 10:21:15;;;;;;;16.83;14.63;;;10.40;47.00;;;;;;5049470;28;20247;-53
2022/01/15 10:23:48;;;;;;;16.10;14.40;;;10.50;46.70;;;;;;5050347;28;20922;-51
2022/01/15 10:26:25;;;;;;;16.93;15.20;;;10.50;46.50;;;;;;5049582;28;20914;-54
2022/01/15 10:29:03;;;;;;;19.13;15.43;;;10.20;47.80;;;;;;5049550;28;20481;-49
2022/01/15 10:31:49;;;;;;;17.30;15.10;;;10.60;47.50;;;;;;5049720;28;20471;-53
2022/01/15 10:34:37;;;;;;;18.57;16.57;;;10.80;46.70;;;;;;5038822;28;20887;-50
2022/01/15 10:37:12;;;;;;;17.60;15.80;;;10.90;47.00;;;;;;5049265;28;20447;-49
2022/01/15 10:39:38;;;;;;;17.50;15.70;;;10.90;46.40;;;;;;5048505;28;20439;-52
2022/01/15 10:42:15;;;;;;;15.10;13.23;;;11.00;46.30;;;;;;5049222;28;20962;-52
2022/01/15 10:44:42;;;;;;;18.73;15.43;;;11.10;46.20;;;;;;5049848;28;20442;-50
2022/01/15 10:47:12;;;;;;;16.73;14.73;;;11.20;46.30;;;;;;5042547;28;20442;-53
2022/01/15 10:49:40;;;;;;;18.13;16.27;;;11.10;46.20;;;;;;5050014;28;20498;-53
2022/01/15 10:52:21;;;;;;;16.10;14.20;;;11.20;46.70;;;;;;5049785;28;20453;-53
2022/01/15 10:55:06;;;;;;;19.00;15.33;;;11.10;46.20;;;;;;5049542;28;20447;-53
2022/01/15 10:57:34;;;;;;;17.47;15.63;;;11.20;46.10;;;;;;5051113;28;20415;-54
2022/01/15 11:00:05;;;;;;;18.00;15.40;;;11.30;45.90;;;;;;5053729;28;20560;-53
2022/01/15 11:02:30;;;;;;;22.20;15.17;;;11.20;45.70;;;;;;5053026;28;20485;-50
2022/01/15 11:04:57;;;;;;;19.80;16.70;;;11.20;45.90;;;;;;5049344;28;20438;-50
2022/01/15 11:07:23;;;;;;;16.70;14.90;;;11.30;45.90;;;;;;5038493;28;20185;-53
2022/01/15 11:09:51;;;;;;;19.23;15.90;;;11.40;46.20;;;;;;5053702;28;20518;-50
2022/01/15 11:12:18;;;;;;;19.07;15.87;;;11.40;45.90;;;;;;5051006;28;20937;-53
2022/01/15 11:14:44;;;;;;;20.67;16.87;;;11.60;45.60;;;;;;5053055;28;20440;-51
2022/01/15 11:17:10;;;;;;;21.93;15.60;;;11.80;45.80;;;;;;5052526;28;20462;-53
2022/01/15 11:19:36;;;;;;;17.17;14.90;;;11.80;45.10;;;;;;5050570;28;20265;-52
2022/01/15 11:22:03;;;;;;;17.23;15.50;;;11.90;45.10;;;;;;5047115;28;20789;-49
2022/01/15 11:24:29;;;;;;;18.70;16.70;;;11.90;45.00;;;;;;5044496;28;20419;-53
2022/01/15 11:26:59;;;;;;;17.40;15.50;;;12.00;44.80;;;;;;5052590;28;20416;-50
2022/01/15 11:29:26;;;;;;;17.87;15.90;;;12.10;44.60;;;;;;5048819;28;20560;-49
2022/01/15 11:31:56;;;;;;;18.67;16.70;;;12.00;45.00;;;;;;5039810;28;20538;-54
2022/01/15 11:34:23;;;;;;;20.60;18.37;;;12.00;45.00;;;;;;5047446;28;20466;-53
2022/01/15 11:36:49;;;;;;;19.13;16.97;;;11.90;45.10;;;;;;5049639;28;20439;-53
2022/01/15 11:39:33;;;;;;;23.67;21.20;;;11.70;45.10;;;;;;5042810;28;20514;-51
2022/01/15 11:42:02;;;;;;;21.97;19.70;;;11.60;45.70;;;;;;5052172;28;20532;-50
2022/01/15 11:44:35;;;;;;;21.77;17.90;;;11.60;45.90;;;;;;5052537;28;20431;-50
2022/01/15 11:47:13;;;;;;;20.80;17.83;;;11.40;46.10;;;;;;5052273;28;20443;-53
2022/01/15 11:49:44;;;;;;;19.37;17.10;;;11.30;46.40;;;;;;5052655;28;20423;-50
2022/01/15 11:52:14;;;;;;;21.60;16.97;;;11.20;46.60;;;;;;5052510;28;20441;-53
2022/01/15 11:54:48;;;;;;;21.80;16.47;;;11.20;46.90;;;;;;5044003;28;20446;-53
2022/01/15 11:57:28;;;;;;;20.30;16.90;;;11.10;47.70;;;;;;5052475;28;20826;-50
2022/01/15 12:00:01;;;;;;;20.23;18.03;;;11.10;47.70;;;;;;5051104;28;20419;-51
2022/01/15 12:02:35;;;;;;;19.83;17.50;;;11.10;47.70;;;;;;5051644;28;20482;-51
2022/01/15 12:05:19;;;;;;;18.77;16.60;;;11.10;47.50;;;;;;5045063;28;20960;-50
2022/01/15 12:08:00;;;;;;;20.70;17.60;;;11.20;47.40;;;;;;5051573;28;20922;-50
2022/01/15 12:10:45;;;;;;;24.20;17.83;;;11.30;47.20;;;;;;5051071;28;20422;-50
2022/01/15 12:13:15;;;;;;;22.00;17.03;;;11.30;47.30;;;;;;5041120;28;20970;-50
2022/01/15 12:15:41;;;;;;;22.63;19.00;;;11.30;47.30;;;;;;5051742;28;20929;-50
2022/01/15 12:18:16;;;;;;;23.73;18.33;;;11.40;47.40;;;;;;5051868;28;20423;-50
2022/01/15 12:20:41;;;;;;;26.40;19.97;;;11.60;47.70;;;;;;5051966;28;20281;-50
2022/01/15 12:23:19;;;;;;;23.70;19.10;;;11.70;46.90;;;;;;5051360;28;20491;-50
2022/01/15 12:25:46;;;;;;;20.07;17.30;;;11.70;47.60;;;;;;5046043;28;20200;-50
2022/01/15 12:28:14;;;;;;;21.73;19.10;;;11.60;47.40;;;;;;5044242;28;20416;-51
2022/01/15 12:30:52;;;;;;;23.13;19.83;;;11.60;47.50;;;;;;5051846;28;20831;-53
2022/01/15 12:33:19;;;;;;;22.60;20.20;;;11.70;47.20;;;;;;5051561;28;20435;-52
2022/01/15 12:35:47;;;;;;;24.00;19.80;;;11.50;47.30;;;;;;5047629;28;20489;-53
2022/01/15 12:38:25;;;;;;;27.80;22.17;;;11.40;47.70;;;;;;5035911;28;20798;-54
2022/01/15 12:40:56;;;;;;;25.13;20.03;;;11.30;47.80;;;;;;5051078;28;21012;-53
2022/01/15 12:43:43;;;;;;;25.53;21.03;;;11.30;47.80;;;;;;5051767;28;20476;-53
2022/01/15 12:46:15;;;;;;;25.07;19.97;;;11.30;48.00;;;;;;5048951;28;20467;-53
2022/01/15 12:48:46;;;;;;;25.60;21.57;;;11.40;48.40;;;;;;5052014;28;20809;-53
2022/01/15 12:51:21;;;;;;;26.23;21.37;;;11.50;47.90;;;;;;5051120;28;20427;-53
2022/01/15 12:53:50;;;;;;;26.00;20.40;;;11.70;47.50;;;;;;5043190;28;20434;-53
2022/01/15 12:56:18;;;;;;;25.00;22.03;;;11.60;47.60;;;;;;5046798;28;20447;-50
2022/01/15 12:58:44;;;;;;;26.83;22.43;;;11.60;47.50;;;;;;5051789;28;20809;-53
2022/01/15 13:01:11;;;;;;;22.07;19.53;;;11.70;47.10;;;;;;5051118;28;20425;-51
2022/01/15 13:03:41;;;;;;;23.30;19.63;;;11.60;47.20;;;;;;5039846;28;20487;-54